Time;durP1;ratioP1;P1;durP2;ratioP2;P2;SDS_P1;SDS_P2;PMS_P1;PMS_P2;Temp;Humidity;BMP_temperature;BMP_pressure;BME280_temperature;BME280_humidity;BME280_pressure;Samples;Min_cycle;Max_cycle;Signal;HPM_P1;HPM_P2
2022/09/21 00:01:23;;;;;;;5.80;4.37;;;14.40;99.90;;;;;;5070546;28;20488;-83
2022/09/21 00:03:56;;;;;;;7.10;4.53;;;14.30;99.90;;;;;;5054396;28;20534;-82
2022/09/21 00:06:25;;;;;;;6.67;5.17;;;14.20;99.90;;;;;;5050776;28;20462;-84
2022/09/21 00:08:53;;;;;;;5.80;5.00;;;14.10;99.90;;;;;;5052740;28;20472;-81
2022/09/21 00:11:28;;;;;;;8.70;4.80;;;14.20;99.90;;;;;;5057040;28;20484;-81
2022/09/21 00:14:03;;;;;;;6.07;4.33;;;14.10;99.90;;;;;;5051585;28;20470;-82
2022/09/21 00:16:30;;;;;;;5.90;4.10;;;14.10;99.90;;;;;;5073698;28;20989;-80
2022/09/21 00:18:58;;;;;;;10.67;4.20;;;14.00;99.90;;;;;;5066354;28;20512;-80
2022/09/21 00:21:27;;;;;;;4.33;3.93;;;13.90;99.90;;;;;;5058026;28;20484;-82
2022/09/21 00:23:54;;;;;;;4.63;3.90;;;13.80;99.90;;;;;;5061082;28;20530;-81
2022/09/21 00:26:23;;;;;;;5.90;3.80;;;13.80;99.90;;;;;;5059005;28;20459;-81
2022/09/21 00:28:55;;;;;;;4.13;3.70;;;13.90;99.90;;;;;;5063742;28;20444;-83
2022/09/21 00:31:22;;;;;;;3.33;3.00;;;14.10;99.90;;;;;;5057296;28;20483;-82
2022/09/21 00:33:50;;;;;;;4.00;3.20;;;14.00;99.90;;;;;;5055064;28;21045;-81
2022/09/21 00:36:19;;;;;;;7.03;3.77;;;13.70;99.90;;;;;;5057070;28;20502;-82
2022/09/21 00:38:51;;;;;;;4.67;3.77;;;14.00;99.90;;;;;;5058741;28;20519;-82
2022/09/21 00:41:27;;;;;;;5.70;3.23;;;13.90;99.90;;;;;;5067855;28;20584;-82
2022/09/21 00:44:12;;;;;;;4.90;4.03;;;13.80;99.90;;;;;;5056547;28;20814;-83
2022/09/21 00:46:41;;;;;;;8.77;4.40;;;13.60;99.90;;;;;;5071643;28;20448;-82
2022/09/21 00:49:10;;;;;;;4.10;3.40;;;13.60;99.90;;;;;;5051139;28;20468;-82
2022/09/21 00:51:41;;;;;;;5.20;3.80;;;13.60;99.90;;;;;;5058946;28;20836;-83
2022/09/21 00:54:19;;;;;;;3.83;3.53;;;13.80;99.90;;;;;;5074820;28;20466;-82
2022/09/21 00:56:52;;;;;;;4.20;3.60;;;13.70;99.90;;;;;;5056385;28;20461;-83
2022/09/21 00:59:19;;;;;;;7.10;4.00;;;13.60;99.90;;;;;;5060259;28;20472;-82
2022/09/21 01:01:50;;;;;;;4.30;3.57;;;13.60;99.90;;;;;;5060566;28;20938;-82
2022/09/21 01:04:23;;;;;;;4.57;3.60;;;13.60;99.90;;;;;;5054964;28;20977;-82
2022/09/21 01:07:00;;;;;;;4.83;3.73;;;13.60;99.90;;;;;;5047171;28;20463;-82
2022/09/21 01:09:31;;;;;;;7.83;3.83;;;13.60;99.90;;;;;;5056972;28;20444;-82
2022/09/21 01:12:37;;;;;;;4.90;4.20;;;13.50;99.90;;;;;;5073565;28;20479;-82
2022/09/21 01:15:16;;;;;;;4.30;3.93;;;13.80;99.90;;;;;;5058790;28;20527;-82
2022/09/21 01:17:57;;;;;;;7.73;4.77;;;13.60;99.90;;;;;;5059805;28;20452;-81
2022/09/21 01:21:11;;;;;;;6.30;4.33;;;13.70;99.90;;;;;;5059395;28;20453;-80
2022/09/21 01:23:48;;;;;;;4.50;3.10;;;13.60;99.90;;;;;;5040973;28;20521;-81
2022/09/21 01:26:36;;;;;;;6.60;3.90;;;13.70;99.90;;;;;;5082073;28;20483;-80
2022/09/21 01:29:19;;;;;;;6.13;4.00;;;13.80;99.90;;;;;;5058561;28;20445;-80
2022/09/21 01:31:51;;;;;;;6.03;3.80;;;13.70;99.90;;;;;;5085315;28;20475;-81
2022/09/21 01:34:36;;;;;;;5.70;3.70;;;13.60;99.90;;;;;;5073321;28;20494;-81
2022/09/21 01:37:09;;;;;;;12.27;4.47;;;13.60;99.90;;;;;;5057751;28;20552;-80
2022/09/21 01:39:41;;;;;;;4.10;3.50;;;13.50;99.90;;;;;;5052409;28;20442;-83
2022/09/21 01:42:26;;;;;;;6.33;4.07;;;13.30;99.90;;;;;;5072725;28;20492;-83
2022/09/21 01:44:59;;;;;;;7.03;4.20;;;13.00;99.90;;;;;;5081700;28;20510;-83
2022/09/21 01:47:32;;;;;;;8.90;3.53;;;12.80;99.90;;;;;;5093992;28;20523;-82
2022/09/21 01:50:01;;;;;;;6.00;3.80;;;12.70;99.90;;;;;;5074174;28;20463;-81
2022/09/21 01:52:41;;;;;;;3.80;3.40;;;12.70;99.90;;;;;;5054938;28;21030;-81
2022/09/21 01:55:20;;;;;;;4.23;3.60;;;12.70;99.90;;;;;;5063740;28;20448;-80
2022/09/21 01:58:10;;;;;;;5.07;4.20;;;12.70;99.90;;;;;;5054960;28;20456;-83
2022/09/21 02:00:44;;;;;;;3.93;3.60;;;12.70;99.90;;;;;;5057005;28;20452;-83
2022/09/21 02:03:44;;;;;;;4.33;3.67;;;12.60;99.90;;;;;;5064859;28;20472;-83
2022/09/21 02:06:13;;;;;;;6.10;4.10;;;12.60;99.90;;;;;;5054160;28;20510;-81
2022/09/21 02:08:41;;;;;;;5.20;3.60;;;12.60;99.90;;;;;;5056036;28;20508;-82
2022/09/21 02:11:12;;;;;;;7.43;3.90;;;12.50;99.90;;;;;;5072655;28;20479;-83
2022/09/21 02:13:47;;;;;;;5.93;3.73;;;12.60;99.90;;;;;;5075438;28;20475;-82
2022/09/21 02:16:38;;;;;;;5.40;3.70;;;12.70;99.90;;;;;;5073811;28;20899;-82
2022/09/21 02:19:23;;;;;;;4.10;3.77;;;12.60;99.90;;;;;;5050171;28;20456;-81
2022/09/21 02:22:28;;;;;;;4.90;4.40;;;12.60;99.90;;;;;;5061492;28;20485;-82
2022/09/21 02:25:09;;;;;;;4.50;3.90;;;12.60;99.90;;;;;;5057524;28;20806;-83
2022/09/21 02:27:44;;;;;;;13.13;4.40;;;12.40;99.90;;;;;;5058542;28;20441;-82
2022/09/21 02:30:21;;;;;;;4.33;3.80;;;12.30;99.90;;;;;;5049454;28;20531;-82
2022/09/21 02:33:10;;;;;;;4.13;3.60;;;12.30;99.90;;;;;;5059575;28;20474;-81
2022/09/21 02:35:50;;;;;;;4.43;3.93;;;12.40;99.90;;;;;;5071979;28;20448;-80
2022/09/21 02:38:45;;;;;;;4.50;4.10;;;12.40;99.90;;;;;;5064217;28;20455;-83
2022/09/21 02:41:15;;;;;;;4.73;4.07;;;12.40;99.90;;;;;;5064076;28;20488;-81
2022/09/21 02:43:49;;;;;;;5.40;4.10;;;12.30;99.90;;;;;;5075357;28;20825;-79
2022/09/21 02:46:26;;;;;;;6.20;4.00;;;12.40;99.90;;;;;;5042823;28;20457;-83
2022/09/21 02:49:08;;;;;;;6.50;4.37;;;12.30;99.90;;;;;;5052724;28;20459;-83
2022/09/21 02:51:47;;;;;;;5.27;4.13;;;12.30;99.90;;;;;;5055257;28;20490;-83
2022/09/21 02:54:21;;;;;;;4.77;3.80;;;12.10;99.90;;;;;;5039342;28;20483;-83
2022/09/21 02:56:50;;;;;;;5.63;4.17;;;12.10;99.90;;;;;;5051908;28;20822;-83
2022/09/21 02:59:17;;;;;;;4.13;3.83;;;12.10;99.90;;;;;;5054785;28;20452;-83
2022/09/21 03:01:46;;;;;;;4.30;3.90;;;12.20;99.90;;;;;;5052232;28;20483;-83
2022/09/21 03:04:13;;;;;;;5.53;3.70;;;12.10;99.90;;;;;;5055785;28;20866;-81
2022/09/21 03:06:42;;;;;;;7.47;4.20;;;12.10;99.90;;;;;;5053818;28;20449;-83
2022/09/21 03:09:23;;;;;;;5.37;3.80;;;12.10;99.90;;;;;;5071846;28;20445;-83
2022/09/21 03:11:55;;;;;;;3.70;3.40;;;12.30;99.90;;;;;;5051116;28;20839;-80
2022/09/21 03:14:23;;;;;;;6.00;4.23;;;12.20;99.90;;;;;;5070326;28;20459;-83
2022/09/21 03:16:53;;;;;;;4.30;3.90;;;12.50;99.90;;;;;;5054877;28;20448;-82
2022/09/21 03:19:20;;;;;;;5.03;4.47;;;12.50;99.90;;;;;;5071984;28;20470;-82
2022/09/21 03:21:50;;;;;;;5.77;4.50;;;12.40;99.90;;;;;;5053270;28;20496;-82
2022/09/21 03:24:44;;;;;;;5.13;4.63;;;12.30;99.90;;;;;;5056360;28;20498;-82
2022/09/21 03:27:04;;;;;;;6.70;4.67;;;12.20;99.90;;;;;;5054915;28;20452;-82
2022/09/21 03:29:36;;;;;;;6.17;4.60;;;12.10;99.90;;;;;;5052688;28;20449;-83
2022/09/21 03:32:03;;;;;;;4.60;4.20;;;12.10;99.90;;;;;;5068259;28;20528;-83
2022/09/21 03:34:38;;;;;;;4.80;4.30;;;12.10;99.90;;;;;;5054898;28;20451;-83
2022/09/21 03:37:06;;;;;;;5.97;4.47;;;12.10;99.90;;;;;;5053287;28;20461;-83
2022/09/21 03:39:33;;;;;;;4.10;3.70;;;12.00;99.90;;;;;;5054127;28;20471;-82
2022/09/21 03:42:01;;;;;;;7.47;4.40;;;12.00;99.90;;;;;;5053490;28;20504;-83
2022/09/21 03:44:34;;;;;;;7.53;4.60;;;12.20;99.90;;;;;;5054456;28;20509;-82
2022/09/21 03:47:05;;;;;;;5.97;5.00;;;12.10;99.90;;;;;;5049684;28;20452;-83
2022/09/21 03:49:33;;;;;;;5.20;4.33;;;12.00;99.90;;;;;;5048966;28;20466;-82
2022/09/21 03:52:03;;;;;;;7.70;4.43;;;12.00;99.90;;;;;;5054102;28;20476;-83
2022/09/21 03:54:30;;;;;;;6.13;4.80;;;12.00;99.90;;;;;;5055643;28;20455;-83
2022/09/21 03:57:00;;;;;;;7.17;4.83;;;12.00;99.90;;;;;;5070798;28;20472;-81
2022/09/21 03:59:30;;;;;;;5.30;4.37;;;12.30;99.90;;;;;;5060191;28;20432;-82
2022/09/21 04:02:00;;;;;;;4.90;4.50;;;12.20;99.90;;;;;;5066712;28;20484;-81
2022/09/21 04:04:29;;;;;;;5.10;4.33;;;12.10;99.90;;;;;;5061845;28;20441;-83
2022/09/21 04:06:58;;;;;;;6.63;4.77;;;12.00;99.90;;;;;;5072007;28;20450;-82
2022/09/21 04:09:25;;;;;;;5.80;5.20;;;12.00;99.90;;;;;;5074878;28;20436;-83
2022/09/21 04:11:54;;;;;;;5.83;4.60;;;11.80;99.90;;;;;;5078406;28;21321;-84
2022/09/21 04:14:22;;;;;;;5.20;4.80;;;11.60;99.90;;;;;;5058577;28;20452;-83
2022/09/21 04:16:50;;;;;;;5.47;4.97;;;11.50;99.90;;;;;;5054452;28;20444;-82
2022/09/21 04:19:18;;;;;;;7.67;5.60;;;11.60;99.90;;;;;;5070662;28;20453;-82
2022/09/21 04:21:44;;;;;;;6.93;6.03;;;11.60;99.90;;;;;;5054787;28;20523;-83
2022/09/21 04:24:11;;;;;;;9.80;5.83;;;11.70;99.90;;;;;;5051898;28;20547;-83
2022/09/21 04:26:39;;;;;;;8.77;6.87;;;11.60;99.90;;;;;;5058053;28;20824;-82
2022/09/21 04:29:06;;;;;;;7.17;6.07;;;11.50;99.90;;;;;;5058280;28;20460;-80
2022/09/21 04:31:33;;;;;;;11.40;5.93;;;11.30;99.90;;;;;;5051919;28;20539;-82
2022/09/21 04:34:00;;;;;;;6.33;4.90;;;11.30;99.90;;;;;;5058185;28;20814;-83
2022/09/21 04:36:28;;;;;;;12.23;7.10;;;11.40;99.90;;;;;;5057691;28;20471;-82
2022/09/21 04:39:02;;;;;;;10.33;7.00;;;11.30;99.90;;;;;;5057918;28;20451;-82
2022/09/21 04:41:29;;;;;;;11.03;6.70;;;11.30;99.90;;;;;;5054324;28;20543;-82
2022/09/21 04:43:55;;;;;;;16.80;8.30;;;11.30;99.90;;;;;;5058839;28;20470;-82
2022/09/21 04:46:22;;;;;;;11.73;6.63;;;11.20;99.90;;;;;;5059711;28;20559;-83
2022/09/21 04:48:49;;;;;;;8.97;6.50;;;11.10;99.90;;;;;;5057583;28;20452;-82
2022/09/21 04:51:16;;;;;;;10.67;6.20;;;11.10;99.90;;;;;;5051460;28;20480;-81
2022/09/21 04:53:43;;;;;;;8.57;5.70;;;11.10;99.90;;;;;;5060208;28;20444;-82
2022/09/21 04:56:13;;;;;;;14.03;5.97;;;11.00;99.90;;;;;;5083541;28;20459;-83
2022/09/21 04:58:40;;;;;;;11.03;6.40;;;11.00;99.90;;;;;;5065275;28;20440;-83
2022/09/21 05:01:07;;;;;;;14.50;6.50;;;11.30;99.90;;;;;;5064841;28;20480;-82
2022/09/21 05:03:34;;;;;;;9.20;6.27;;;11.30;99.90;;;;;;5058652;28;20510;-82
2022/09/21 05:06:01;;;;;;;6.27;5.50;;;11.20;99.90;;;;;;5060364;28;20470;-82
2022/09/21 05:11:21;;;;;;;9.30;6.00;;;11.30;99.90;;;;;;5055823;28;20464;-82
2022/09/21 05:13:48;;;;;;;9.23;6.57;;;11.10;99.90;;;;;;5076185;28;20449;-83
2022/09/21 05:16:16;;;;;;;9.60;6.60;;;11.10;99.90;;;;;;5060160;28;20507;-83
2022/09/21 05:18:43;;;;;;;7.60;5.90;;;11.30;99.90;;;;;;5068679;28;20489;-81
2022/09/21 05:21:12;;;;;;;6.80;5.97;;;11.20;99.90;;;;;;5059812;28;20880;-83
2022/09/21 05:23:41;;;;;;;5.97;5.47;;;11.20;99.90;;;;;;5062284;28;20591;-83
2022/09/21 05:26:08;;;;;;;6.03;5.20;;;11.30;99.90;;;;;;5068401;28;20958;-81
2022/09/21 05:28:35;;;;;;;6.27;5.67;;;11.10;99.90;;;;;;5061503;28;20483;-80
2022/09/21 05:31:29;;;;;;;6.40;5.33;;;11.10;99.90;;;;;;5065234;28;20468;-79
2022/09/21 05:34:11;;;;;;;5.73;5.00;;;11.10;99.90;;;;;;5059308;28;20515;-80
2022/09/21 05:36:56;;;;;;;6.93;5.97;;;11.20;99.90;;;;;;5061390;28;20459;-80
2022/09/21 05:39:23;;;;;;;6.37;5.20;;;11.10;99.90;;;;;;5067348;28;20458;-82
2022/09/21 05:41:50;;;;;;;7.53;5.23;;;11.10;99.90;;;;;;5058195;28;20541;-82
2022/09/21 05:44:17;;;;;;;8.97;4.90;;;11.20;99.90;;;;;;5058753;28;20448;-82
2022/09/21 05:46:57;;;;;;;7.93;6.23;;;11.40;99.90;;;;;;5051352;28;20476;-83
2022/09/21 05:49:37;;;;;;;6.77;6.13;;;11.40;99.90;;;;;;5058267;28;20436;-83
2022/09/21 05:52:25;;;;;;;8.00;6.63;;;11.30;99.90;;;;;;5052598;28;20464;-83
2022/09/21 05:55:06;;;;;;;8.00;6.60;;;11.10;99.90;;;;;;5054000;28;20463;-83
2022/09/21 05:57:53;;;;;;;8.93;5.90;;;11.20;99.90;;;;;;5058617;28;20432;-82
2022/09/21 06:00:22;;;;;;;9.90;6.60;;;11.20;99.90;;;;;;5061105;28;20449;-79
2022/09/21 06:02:58;;;;;;;11.73;7.27;;;11.50;99.90;;;;;;5056928;28;20488;-83
2022/09/21 06:05:27;;;;;;;8.70;7.37;;;11.50;99.90;;;;;;5062347;28;20448;-82
2022/09/21 06:07:53;;;;;;;9.33;6.10;;;11.90;99.90;;;;;;5072644;28;20448;-83
2022/09/21 06:10:20;;;;;;;8.83;6.97;;;13.30;99.90;;;;;;5062007;28;20451;-81
2022/09/21 06:12:47;;;;;;;10.57;7.20;;;14.00;99.90;;;;;;5060496;28;20537;-83
2022/09/21 06:15:15;;;;;;;10.07;6.90;;;14.30;99.80;;;;;;5062057;28;20444;-82
2022/09/21 06:17:42;;;;;;;11.00;7.20;;;13.60;98.80;;;;;;5053356;28;20456;-82
2022/09/21 06:20:09;;;;;;;7.00;6.27;;;12.90;99.70;;;;;;5060780;28;20444;-83
2022/09/21 06:22:36;;;;;;;13.93;7.23;;;12.60;99.90;;;;;;5059793;28;20554;-82
2022/09/21 06:25:03;;;;;;;7.40;6.50;;;12.60;99.90;;;;;;5062185;28;20453;-83
2022/09/21 06:27:29;;;;;;;9.90;6.90;;;12.50;99.90;;;;;;5063998;28;20444;-82
2022/09/21 06:29:56;;;;;;;8.03;6.70;;;12.50;99.90;;;;;;5073215;28;20447;-82
2022/09/21 06:32:23;;;;;;;8.80;6.67;;;12.30;99.90;;;;;;5082780;28;20457;-82
2022/09/21 06:34:50;;;;;;;7.13;6.20;;;12.30;99.90;;;;;;5060686;28;20520;-82
2022/09/21 06:37:17;;;;;;;7.50;6.70;;;12.10;99.90;;;;;;5061640;28;20449;-81
2022/09/21 06:39:44;;;;;;;16.87;6.67;;;12.10;99.90;;;;;;5060785;28;20444;-81
2022/09/21 06:42:11;;;;;;;9.70;6.73;;;12.10;99.90;;;;;;5070654;28;21051;-82
2022/09/21 06:44:38;;;;;;;11.83;6.97;;;11.90;99.90;;;;;;5058275;28;20494;-82
2022/09/21 06:47:05;;;;;;;8.17;5.83;;;12.00;99.90;;;;;;5060566;28;21150;-82
2022/09/21 06:49:32;;;;;;;11.33;6.70;;;11.70;99.90;;;;;;5080393;28;20454;-82
2022/09/21 06:51:59;;;;;;;11.90;7.57;;;11.80;99.90;;;;;;5066046;28;20495;-84
2022/09/21 06:54:25;;;;;;;10.90;6.60;;;11.90;99.90;;;;;;5056462;28;20518;-83
2022/09/21 06:56:52;;;;;;;8.83;7.10;;;12.00;99.90;;;;;;5056457;28;20496;-83
2022/09/21 06:59:24;;;;;;;8.33;7.50;;;12.10;99.90;;;;;;5058665;28;20977;-83
2022/09/21 07:01:51;;;;;;;7.33;6.63;;;12.20;99.90;;;;;;5066058;28;20465;-83
2022/09/21 07:04:20;;;;;;;8.63;6.63;;;12.30;99.90;;;;;;5069032;28;20476;-81
2022/09/21 07:06:50;;;;;;;11.23;7.30;;;12.30;99.90;;;;;;5062835;28;20455;-81
2022/09/21 07:09:18;;;;;;;7.80;7.00;;;12.20;99.90;;;;;;5063837;28;20474;-80
2022/09/21 07:12:05;;;;;;;9.20;7.20;;;12.00;99.90;;;;;;5049326;28;21077;-81
2022/09/21 07:14:33;;;;;;;9.40;7.30;;;11.70;99.90;;;;;;5082569;28;20483;-82
2022/09/21 07:16:59;;;;;;;8.60;7.67;;;11.80;99.90;;;;;;5068930;28;20497;-81
2022/09/21 07:19:26;;;;;;;9.53;7.63;;;11.90;99.90;;;;;;5069608;28;20484;-83
2022/09/21 07:21:53;;;;;;;10.13;7.70;;;11.70;99.90;;;;;;5068172;28;20460;-82
2022/09/21 07:24:20;;;;;;;9.70;8.57;;;11.80;99.90;;;;;;5066858;28;20495;-82
2022/09/21 07:26:48;;;;;;;9.77;8.47;;;11.50;99.90;;;;;;5085290;28;20444;-80
2022/09/21 07:29:15;;;;;;;11.27;9.20;;;11.50;99.90;;;;;;5076275;28;20432;-83
2022/09/21 07:31:45;;;;;;;11.10;9.63;;;11.70;99.90;;;;;;5074130;28;20479;-82
2022/09/21 07:34:11;;;;;;;11.07;8.17;;;12.10;99.90;;;;;;5074376;28;20444;-82
2022/09/21 07:36:38;;;;;;;11.83;8.40;;;12.20;99.90;;;;;;5061459;28;20453;-82
2022/09/21 07:39:08;;;;;;;11.93;8.70;;;12.20;99.90;;;;;;5061529;28;20452;-83
2022/09/21 07:41:35;;;;;;;14.23;9.30;;;12.00;99.90;;;;;;5075069;28;20468;-82
2022/09/21 07:44:02;;;;;;;12.47;9.97;;;12.10;99.90;;;;;;5075928;28;20552;-82
2022/09/21 07:46:29;;;;;;;10.60;9.50;;;12.10;99.90;;;;;;5074254;28;20448;-80
2022/09/21 07:48:56;;;;;;;12.97;9.20;;;12.20;99.90;;;;;;5074494;28;20452;-82
2022/09/21 07:51:23;;;;;;;12.13;10.70;;;12.10;99.90;;;;;;5057485;28;20481;-81
2022/09/21 07:53:55;;;;;;;13.53;10.40;;;12.30;99.90;;;;;;5058444;28;20440;-81
2022/09/21 07:56:23;;;;;;;11.13;9.60;;;12.90;99.90;;;;;;5064408;28;20436;-82
2022/09/21 07:59:04;;;;;;;12.60;10.50;;;13.10;99.90;;;;;;5062275;28;20451;-81
2022/09/21 08:01:34;;;;;;;12.20;10.13;;;13.60;99.90;;;;;;5066697;28;20476;-81
2022/09/21 08:04:03;;;;;;;13.13;10.10;;;13.30;99.90;;;;;;5069268;28;20472;-80
2022/09/21 08:06:31;;;;;;;13.53;10.77;;;13.60;99.90;;;;;;5061156;28;20453;-81
2022/09/21 08:08:59;;;;;;;16.80;9.80;;;13.50;99.90;;;;;;5065898;28;20463;-81
2022/09/21 08:11:29;;;;;;;12.63;10.40;;;13.50;99.90;;;;;;5064087;28;20468;-80
2022/09/21 08:13:58;;;;;;;12.63;10.73;;;13.60;99.90;;;;;;5066300;28;20440;-80
2022/09/21 08:16:26;;;;;;;11.50;9.60;;;13.50;99.90;;;;;;5064745;28;20456;-81
2022/09/21 08:18:53;;;;;;;10.87;9.77;;;13.50;99.90;;;;;;5065495;28;20466;-81
2022/09/21 08:21:20;;;;;;;10.70;8.70;;;13.60;99.90;;;;;;5064598;28;20464;-80
2022/09/21 08:23:48;;;;;;;9.93;8.90;;;13.70;99.90;;;;;;5064568;28;20476;-81
2022/09/21 08:26:18;;;;;;;11.93;9.27;;;13.40;99.90;;;;;;5067480;28;20476;-81
2022/09/21 08:28:51;;;;;;;9.50;8.10;;;13.50;99.90;;;;;;5064268;28;20467;-81
2022/09/21 08:31:20;;;;;;;10.83;9.10;;;13.50;99.90;;;;;;5068066;28;20486;-81
2022/09/21 08:33:48;;;;;;;12.07;10.70;;;13.50;99.90;;;;;;5067920;28;20491;-81
2022/09/21 08:36:16;;;;;;;16.10;11.30;;;13.30;99.90;;;;;;5067092;28;20440;-80
2022/09/21 08:38:43;;;;;;;12.60;10.97;;;13.10;99.90;;;;;;5060645;28;20510;-83
2022/09/21 08:41:47;;;;;;;13.70;10.73;;;13.00;99.90;;;;;;5059438;28;20461;-81
2022/09/21 08:44:22;;;;;;;14.20;10.80;;;12.90;99.90;;;;;;5058913;28;20472;-81
2022/09/21 08:47:15;;;;;;;11.57;10.30;;;12.70;99.90;;;;;;5045206;28;20468;-81
2022/09/21 08:49:48;;;;;;;14.10;10.17;;;12.90;99.90;;;;;;5049964;28;20468;-83
2022/09/21 08:52:18;;;;;;;12.53;10.10;;;12.90;99.90;;;;;;5062518;28;20468;-80
2022/09/21 08:54:57;;;;;;;13.33;10.50;;;12.90;99.90;;;;;;5072142;28;20463;-83
2022/09/21 08:57:33;;;;;;;14.93;10.30;;;13.00;99.90;;;;;;5071400;28;20867;-84
2022/09/21 09:00:05;;;;;;;15.93;11.83;;;13.10;99.90;;;;;;5060621;28;20485;-83
2022/09/21 09:03:15;;;;;;;13.07;10.77;;;12.90;99.90;;;;;;5058859;28;21048;-82
2022/09/21 09:06:00;;;;;;;12.70;9.57;;;13.00;99.90;;;;;;5052837;28;20454;-82
2022/09/21 09:08:55;;;;;;;12.80;10.40;;;12.90;99.90;;;;;;5057884;28;20436;-82
2022/09/21 09:11:47;;;;;;;15.50;11.67;;;13.30;99.90;;;;;;5052134;28;20480;-81
2022/09/21 09:14:53;;;;;;;13.73;10.77;;;13.50;99.90;;;;;;5053072;28;20514;-82
2022/09/21 09:17:38;;;;;;;13.33;10.40;;;13.60;99.90;;;;;;5050463;28;20781;-82
2022/09/21 09:20:22;;;;;;;14.13;10.40;;;13.60;99.90;;;;;;5053030;28;20490;-82
2022/09/21 09:22:58;;;;;;;12.30;11.10;;;13.70;99.90;;;;;;5066543;28;20467;-82
2022/09/21 09:25:29;;;;;;;13.53;10.90;;;13.50;99.90;;;;;;5060433;28;20443;-83
2022/09/21 09:28:00;;;;;;;11.60;10.40;;;13.70;99.90;;;;;;5057135;28;20479;-82
2022/09/21 09:30:30;;;;;;;13.20;10.83;;;13.80;99.90;;;;;;5055482;28;20463;-82
2022/09/21 09:33:20;;;;;;;12.23;9.17;;;13.90;99.90;;;;;;5056940;28;20456;-82
2022/09/21 09:35:51;;;;;;;11.20;10.10;;;14.00;99.90;;;;;;5059572;28;20468;-81
2022/09/21 09:38:38;;;;;;;11.53;9.90;;;14.00;99.90;;;;;;5057341;28;20474;-82
2022/09/21 09:41:33;;;;;;;12.80;11.00;;;14.10;99.90;;;;;;5059648;28;20464;-81
2022/09/21 09:44:10;;;;;;;9.80;8.77;;;14.50;99.90;;;;;;5076908;28;20484;-80
2022/09/21 09:47:09;;;;;;;11.50;8.30;;;15.80;99.00;;;;;;5075577;28;20451;-84
2022/09/21 09:49:54;;;;;;;9.23;8.23;;;16.30;96.10;;;;;;5056966;28;20506;-83
2022/09/21 09:52:21;;;;;;;10.80;8.57;;;17.50;95.00;;;;;;5059368;28;20473;-82
2022/09/21 09:54:49;;;;;;;8.67;7.80;;;19.00;92.70;;;;;;5057220;28;20464;-82
2022/09/21 09:57:26;;;;;;;10.97;7.93;;;20.40;88.60;;;;;;5051933;28;20465;-83
2022/09/21 09:59:57;;;;;;;7.73;6.93;;;22.00;79.80;;;;;;5058128;28;20474;-83
2022/09/21 10:02:27;;;;;;;8.43;6.70;;;22.00;76.30;;;;;;5075595;28;20483;-83
2022/09/21 10:05:05;;;;;;;7.43;6.73;;;23.00;70.10;;;;;;5057130;28;20491;-82
2022/09/21 10:07:44;;;;;;;6.97;6.27;;;23.10;68.70;;;;;;5056965;28;20520;-82
2022/09/21 10:10:34;;;;;;;8.00;6.50;;;23.10;66.10;;;;;;5049148;28;20514;-82
2022/09/21 10:13:22;;;;;;;8.27;5.30;;;22.90;68.10;;;;;;5057775;28;20444;-83
2022/09/21 10:15:53;;;;;;;7.70;6.03;;;22.90;66.10;;;;;;5072200;28;20460;-82
2022/09/21 10:18:23;;;;;;;6.27;5.67;;;22.80;65.30;;;;;;5072516;28;20464;-84
2022/09/21 10:20:55;;;;;;;7.07;6.37;;;22.80;65.60;;;;;;5057345;28;20546;-83
2022/09/21 10:23:23;;;;;;;5.40;4.77;;;23.70;63.00;;;;;;5062889;28;20472;-83
2022/09/21 10:26:07;;;;;;;6.70;4.90;;;23.60;60.50;;;;;;5057499;28;20531;-81
2022/09/21 10:28:35;;;;;;;6.13;3.70;;;22.80;61.10;;;;;;5055774;28;20475;-83
2022/09/21 10:31:27;;;;;;;4.50;3.80;;;22.00;62.30;;;;;;5057056;28;20495;-83
2022/09/21 10:34:04;;;;;;;5.00;3.57;;;21.80;64.50;;;;;;5050287;28;20451;-82
2022/09/21 10:36:34;;;;;;;4.17;3.40;;;22.40;61.10;;;;;;5060219;28;20440;-81
2022/09/21 10:39:18;;;;;;;4.03;3.40;;;22.30;59.70;;;;;;5077883;28;20527;-83
2022/09/21 10:41:58;;;;;;;3.93;3.03;;;22.60;59.20;;;;;;5054682;28;20499;-84
2022/09/21 10:44:41;;;;;;;5.57;3.20;;;22.70;58.70;;;;;;5050612;28;20484;-83
2022/09/21 10:47:34;;;;;;;3.93;2.80;;;22.80;57.60;;;;;;5045168;28;20475;-83
2022/09/21 10:50:05;;;;;;;3.97;3.53;;;23.60;55.80;;;;;;5043226;28;20455;-84
2022/09/21 10:52:41;;;;;;;4.40;3.00;;;23.40;56.90;;;;;;5057127;28;20453;-81
2022/09/21 10:55:21;;;;;;;5.20;2.80;;;23.20;57.00;;;;;;5051687;28;20579;-84
2022/09/21 10:57:50;;;;;;;4.10;2.90;;;23.30;56.00;;;;;;5055088;28;20506;-83
2022/09/21 11:00:24;;;;;;;4.00;2.60;;;22.80;56.30;;;;;;5058303;28;20464;-82
2022/09/21 11:02:53;;;;;;;3.33;1.93;;;22.40;57.30;;;;;;5064766;28;20453;-84
2022/09/21 11:05:32;;;;;;;4.20;2.40;;;22.20;57.60;;;;;;5082141;28;20491;-82
2022/09/21 11:08:08;;;;;;;2.83;2.03;;;23.80;54.90;;;;;;5049488;28;20554;-83
2022/09/21 11:10:47;;;;;;;5.13;2.63;;;23.50;54.00;;;;;;5060585;28;20459;-84
2022/09/21 11:13:40;;;;;;;3.97;2.87;;;23.50;54.70;;;;;;5060357;28;20506;-83
2022/09/21 11:16:15;;;;;;;2.60;2.40;;;23.70;54.40;;;;;;5061126;28;20459;-81
2022/09/21 11:19:12;;;;;;;3.47;2.20;;;23.80;54.40;;;;;;5062409;28;20490;-81
2022/09/21 11:21:54;;;;;;;2.30;2.10;;;24.00;53.40;;;;;;5082953;28;20499;-84
2022/09/21 11:24:54;;;;;;;3.43;2.70;;;23.80;53.70;;;;;;5064485;28;20472;-82
2022/09/21 11:27:36;;;;;;;3.60;2.60;;;23.30;54.50;;;;;;5060030;28;20795;-83
2022/09/21 11:30:09;;;;;;;2.27;2.07;;;23.20;54.20;;;;;;5060157;28;20506;-84
2022/09/21 11:33:17;;;;;;;2.63;2.10;;;23.30;54.60;;;;;;5069841;28;20491;-84
2022/09/21 11:36:25;;;;;;;2.87;2.07;;;23.60;53.60;;;;;;5049580;28;20484;-81
2022/09/21 11:39:03;;;;;;;2.10;1.70;;;23.50;53.70;;;;;;5044211;28;20483;-82
2022/09/21 11:42:01;;;;;;;2.60;1.83;;;23.80;52.40;;;;;;5051885;28;20463;-81
2022/09/21 11:45:01;;;;;;;5.30;1.73;;;23.50;53.00;;;;;;5055114;28;20507;-82
2022/09/21 11:47:49;;;;;;;1.93;1.37;;;23.60;54.10;;;;;;5051316;28;20468;-82
2022/09/21 11:51:03;;;;;;;2.13;1.63;;;23.60;53.50;;;;;;5055126;28;20487;-82
2022/09/21 11:53:39;;;;;;;2.07;1.87;;;24.70;51.00;;;;;;5037235;28;20453;-84
2022/09/21 11:56:30;;;;;;;2.43;1.50;;;24.90;50.30;;;;;;5055789;28;20506;-83
2022/09/21 11:59:35;;;;;;;3.60;1.73;;;25.00;49.50;;;;;;5044966;28;20531;-83
2022/09/21 12:02:27;;;;;;;2.70;1.57;;;24.80;49.90;;;;;;5040884;28;20481;-84
2022/09/21 12:05:11;;;;;;;2.03;1.83;;;25.20;49.10;;;;;;5074952;28;20484;-83
2022/09/21 12:07:45;;;;;;;3.23;1.53;;;24.30;49.30;;;;;;5075079;28;20440;-83
2022/09/21 12:10:35;;;;;;;3.20;1.60;;;23.70;50.90;;;;;;5074940;28;20428;-84
2022/09/21 12:13:28;;;;;;;3.17;1.30;;;24.00;50.80;;;;;;5054174;28;20433;-82
2022/09/21 12:16:10;;;;;;;2.67;1.60;;;24.70;49.60;;;;;;5049736;28;20444;-83
2022/09/21 12:18:57;;;;;;;1.57;1.20;;;24.50;49.90;;;;;;5057991;28;20483;-82
2022/09/21 12:21:38;;;;;;;4.40;1.70;;;24.80;49.50;;;;;;5055730;28;20476;-83
2022/09/21 12:24:33;;;;;;;2.13;1.17;;;24.80;49.10;;;;;;5073850;28;20510;-84
2022/09/21 12:27:14;;;;;;;2.70;1.50;;;24.90;48.80;;;;;;5054639;28;20436;-83
2022/09/21 12:29:46;;;;;;;1.60;1.50;;;24.40;49.10;;;;;;5050824;28;20449;-83
2022/09/21 12:32:31;;;;;;;2.90;1.47;;;24.10;50.20;;;;;;5053979;28;20468;-83
2022/09/21 12:35:03;;;;;;;1.73;1.30;;;25.00;48.80;;;;;;5057525;28;20451;-81
2022/09/21 12:37:39;;;;;;;3.37;1.60;;;25.30;46.60;;;;;;5050879;28;20484;-83
2022/09/21 12:40:27;;;;;;;2.50;1.30;;;24.70;47.10;;;;;;5050446;28;20444;-82
2022/09/21 12:43:04;;;;;;;3.10;1.83;;;24.60;47.90;;;;;;5057275;28;20481;-81
2022/09/21 12:45:37;;;;;;;3.50;1.30;;;24.40;48.30;;;;;;5059587;28;20993;-83
2022/09/21 12:48:06;;;;;;;2.30;1.10;;;24.00;49.20;;;;;;5056115;28;20436;-83
2022/09/21 12:50:50;;;;;;;2.73;1.27;;;24.10;48.80;;;;;;5047594;28;20428;-83
2022/09/21 12:53:27;;;;;;;1.67;1.00;;;24.90;47.70;;;;;;5062147;28;20490;-83
2022/09/21 12:56:21;;;;;;;3.20;1.40;;;24.90;46.90;;;;;;5063646;28;21336;-83
2022/09/21 12:59:03;;;;;;;1.67;1.20;;;24.60;47.00;;;;;;5061057;28;20428;-82
2022/09/21 13:01:54;;;;;;;1.73;1.00;;;24.40;47.00;;;;;;5060806;28;20479;-82
2022/09/21 13:04:42;;;;;;;3.23;1.03;;;24.30;47.30;;;;;;5061263;28;20822;-83
2022/09/21 13:07:14;;;;;;;1.57;1.13;;;23.90;47.30;;;;;;5061220;28;20425;-82
2022/09/21 13:09:43;;;;;;;4.10;1.47;;;23.60;47.90;;;;;;5068806;28;20453;-81
2022/09/21 13:12:24;;;;;;;1.20;1.00;;;24.30;47.00;;;;;;5067169;28;20529;-82
2022/09/21 13:15:01;;;;;;;3.60;1.30;;;24.60;46.10;;;;;;5061875;28;20482;-83
2022/09/21 13:17:30;;;;;;;1.43;0.90;;;24.10;45.80;;;;;;5057808;28;20563;-83
2022/09/21 13:20:06;;;;;;;1.77;1.17;;;23.90;47.10;;;;;;5077521;28;20479;-82
2022/09/21 13:22:35;;;;;;;1.23;1.03;;;23.90;46.60;;;;;;5055297;28;21013;-82
2022/09/21 13:25:07;;;;;;;1.77;1.07;;;24.00;46.70;;;;;;5055394;28;20476;-81
2022/09/21 13:27:59;;;;;;;2.40;1.03;;;24.90;46.00;;;;;;5058795;28;20457;-81